TimeCST,TemperatureF,Dew PointF,Humidity,Sea Level PressureIn,VisibilityMPH,Wind Direction,Wind SpeedMPH,Gust SpeedMPH,PrecipitationIn,Events,Conditions,WindDirDegrees,DateUTC
12:15 AM,16.0,6.8,67,29.85,10.0,SSE,15.0,-,N/A,,Overcast,160,2013-02-18 06:15:00
12:35 AM,16.2,6.6,66,29.83,10.0,SSE,11.5,-,N/A,,Overcast,150,2013-02-18 06:35:00
12:55 AM,16.5,7.5,68,29.83,10.0,SSE,12.7,21.9,N/A,,Overcast,150,2013-02-18 06:55:00
1:15 AM,16.5,8.1,69,29.81,10.0,SE,10.4,-,N/A,,Overcast,140,2013-02-18 07:15:00
1:35 AM,16.9,8.4,69,29.80,10.0,SSE,12.7,17.3,N/A,,Overcast,150,2013-02-18 07:35:00
1:55 AM,17.1,8.8,70,29.78,10.0,SE,11.5,-,N/A,,Overcast,140,2013-02-18 07:55:00
2:15 AM,17.2,8.6,69,29.77,10.0,SE,12.7,-,N/A,,Mostly Cloudy,140,2013-02-18 08:15:00
2:35 AM,17.1,9.1,71,29.75,10.0,SE,13.8,-,N/A,,Mostly Cloudy,130,2013-02-18 08:35:00
2:55 AM,17.2,9.5,72,29.73,10.0,SE,15.0,-,N/A,,Mostly Cloudy,130,2013-02-18 08:55:00
3:15 AM,18.0,10.2,72,29.73,10.0,SE,12.7,-,N/A,,Mostly Cloudy,140,2013-02-18 09:15:00
3:35 AM,18.0,10.6,73,29.72,10.0,SE,9.2,-,N/A,,Overcast,130,2013-02-18 09:35:00
3:55 AM,18.3,10.9,73,29.70,10.0,SE,11.5,-,N/A,,Overcast,130,2013-02-18 09:55:00
4:15 AM,18.5,11.3,73,29.70,10.0,SE,11.5,-,N/A,,Overcast,130,2013-02-18 10:15:00
4:35 AM,17.8,11.1,75,29.69,10.0,SE,10.4,-,N/A,,Scattered Clouds,140,2013-02-18 10:35:00
4:55 AM,18.0,11.3,75,29.68,10.0,SE,11.5,-,N/A,,Clear,130,2013-02-18 10:55:00
5:15 AM,18.0,11.5,76,29.68,10.0,SE,10.4,-,N/A,,Clear,130,2013-02-18 11:15:00
5:35 AM,18.0,11.8,77,29.67,10.0,SE,11.5,-,N/A,,Clear,130,2013-02-18 11:35:00
5:55 AM,18.0,12.0,78,29.67,10.0,SE,11.5,-,N/A,,Clear,130,2013-02-18 11:55:00
6:15 AM,17.8,12.2,79,29.65,10.0,SE,10.4,-,N/A,,Clear,130,2013-02-18 12:15:00
6:35 AM,18.9,13.5,79,29.64,10.0,SE,10.4,-,N/A,,Clear,130,2013-02-18 12:35:00
6:55 AM,19.4,14.0,80,29.63,10.0,SE,11.5,-,N/A,,Clear,130,2013-02-18 12:55:00
7:15 AM,19.4,14.4,81,29.62,10.0,SE,12.7,-,N/A,,Clear,130,2013-02-18 13:15:00
7:35 AM,19.4,14.7,82,29.61,10.0,SE,13.8,-,N/A,,Clear,140,2013-02-18 13:35:00
7:55 AM,20.1,15.1,81,29.61,10.0,SE,11.5,-,N/A,,Clear,140,2013-02-18 13:55:00
8:15 AM,21.2,15.8,80,29.60,10.0,SE,11.5,-,N/A,,Clear,140,2013-02-18 14:15:00
8:35 AM,22.1,16.5,79,29.60,10.0,SSE,11.5,-,N/A,,Clear,150,2013-02-18 14:35:00
8:55 AM,23.0,16.9,77,29.60,10.0,SSE,11.5,-,N/A,,Clear,160,2013-02-18 14:55:00
9:15 AM,24.3,18.1,77,29.59,10.0,SSE,11.5,-,N/A,,Clear,160,2013-02-18 15:15:00
9:35 AM,25.5,18.9,76,29.59,10.0,South,11.5,-,N/A,,Clear,170,2013-02-18 15:35:00
9:55 AM,25.7,19.4,77,29.57,10.0,SSE,9.2,-,N/A,,Clear,150,2013-02-18 15:55:00
10:15 AM,26.6,19.8,75,29.57,10.0,SSE,9.2,-,N/A,,Clear,160,2013-02-18 16:15:00
10:35 AM,27.5,20.5,75,29.56,10.0,SSE,9.2,-,N/A,,Clear,160,2013-02-18 16:35:00
10:55 AM,28.6,21.0,73,29.56,10.0,South,6.9,-,N/A,,Clear,170,2013-02-18 16:55:00
11:15 AM,29.3,21.9,74,29.55,10.0,South,8.1,-,N/A,,Clear,180,2013-02-18 17:15:00
11:35 AM,30.2,22.5,73,29.53,10.0,SSE,5.8,-,N/A,,Clear,160,2013-02-18 17:35:00
11:55 AM,31.1,23.2,72,29.52,10.0,SSE,5.8,-,N/A,,Clear,160,2013-02-18 17:55:00
12:15 PM,31.6,23.5,72,29.52,10.0,SSE,10.4,-,N/A,,Clear,160,2013-02-18 18:15:00
12:35 PM,32.0,24.1,73,29.50,10.0,SSE,8.1,-,N/A,,Clear,160,2013-02-18 18:35:00
12:55 PM,32.0,24.4,74,29.50,10.0,SSE,10.4,-,N/A,,Scattered Clouds,160,2013-02-18 18:55:00
1:15 PM,32.2,24.3,73,29.49,10.0,South,8.1,-,N/A,,Scattered Clouds,170,2013-02-18 19:15:00
1:35 PM,32.9,25.0,73,29.48,10.0,SSE,6.9,-,N/A,,Scattered Clouds,160,2013-02-18 19:35:00
1:55 PM,32.5,25.5,75,29.47,10.0,SSE,5.8,-,N/A,,Scattered Clouds,160,2013-02-18 19:55:00
2:15 PM,33.1,25.3,73,29.46,10.0,SSE,5.8,-,N/A,,Clear,150,2013-02-18 20:15:00
2:35 PM,32.9,25.3,74,29.46,10.0,SSE,5.8,-,N/A,,Clear,160,2013-02-18 20:35:00
2:55 PM,33.4,25.7,73,29.47,10.0,South,8.1,-,N/A,,Scattered Clouds,180,2013-02-18 20:55:00
3:15 PM,33.3,25.7,74,29.47,10.0,South,5.8,-,N/A,,Mostly Cloudy,180,2013-02-18 21:15:00
3:35 PM,33.8,26.2,74,29.48,10.0,SSW,6.9,-,N/A,,Overcast,200,2013-02-18 21:35:00
3:55 PM,33.8,26.4,74,29.47,10.0,SSW,4.6,-,N/A,,Overcast,210,2013-02-18 21:55:00
4:15 PM,34.0,26.6,74,29.47,10.0,SW,6.9,-,N/A,,Overcast,230,2013-02-18 22:15:00
4:35 PM,33.4,26.8,77,29.46,10.0,SSW,3.5,-,N/A,,Overcast,210,2013-02-18 22:35:00
4:55 PM,32.5,27.5,82,29.47,10.0,SW,4.6,-,N/A,,Overcast,220,2013-02-18 22:55:00
5:15 PM,33.4,26.6,76,29.47,10.0,West,4.6,-,N/A,,Overcast,270,2013-02-18 23:15:00
5:35 PM,32.5,27.5,82,29.47,3.0,West,4.6,-,N/A,Snow,Light Snow,270,2013-02-18 23:35:00
5:55 PM,32.0,28.4,87,29.47,3.0,WNW,5.8,-,N/A,Snow,Light Snow,290,2013-02-18 23:55:00
6:15 PM,31.1,28.8,91,29.46,4.0,NW,4.6,-,N/A,Snow,Light Snow,310,2013-02-19 00:15:00
6:35 PM,30.6,28.9,94,29.47,4.0,WNW,3.5,-,N/A,Snow,Light Snow,300,2013-02-19 00:35:00
6:55 PM,30.2,28.9,95,29.47,5.0,WNW,4.6,-,N/A,Snow,Light Snow,290,2013-02-19 00:55:00
7:15 PM,30.2,28.9,95,29.46,5.0,WNW,4.6,-,N/A,Snow,Light Snow,300,2013-02-19 01:15:00
7:35 PM,30.2,28.8,94,29.46,5.0,WNW,5.8,-,N/A,,Overcast,300,2013-02-19 01:35:00
7:55 PM,30.0,28.4,94,29.44,5.0,WNW,6.9,-,N/A,Snow,Light Snow,300,2013-02-19 01:55:00
8:15 PM,29.3,27.9,94,29.44,4.0,NW,8.1,-,N/A,Snow,Light Snow,310,2013-02-19 02:15:00
8:35 PM,29.1,27.5,94,29.42,4.0,NW,8.1,-,N/A,Snow,Light Snow,320,2013-02-19 02:35:00
8:55 PM,28.4,27.1,95,29.41,4.0,NW,6.9,-,N/A,Snow,Light Snow,320,2013-02-19 02:55:00
9:15 PM,28.6,27.0,94,29.41,4.0,NW,6.9,-,N/A,Snow,Light Snow,320,2013-02-19 03:15:00
9:35 PM,29.1,26.6,90,29.42,5.0,NW,9.2,-,N/A,,Overcast,320,2013-02-19 03:35:00
9:55 PM,28.9,26.4,90,29.40,7.0,NW,11.5,-,N/A,,Overcast,320,2013-02-19 03:55:00
10:15 PM,29.1,26.2,89,29.40,7.0,NW,11.5,-,N/A,,Overcast,320,2013-02-19 04:15:00
10:35 PM,29.1,26.1,88,29.40,7.0,NW,13.8,-,N/A,,Overcast,320,2013-02-19 04:35:00
10:55 PM,29.1,26.2,89,29.39,7.0,NW,10.4,-,N/A,,Overcast,320,2013-02-19 04:55:00
11:15 PM,29.1,25.7,87,29.40,7.0,NNW,11.5,21.9,N/A,,Overcast,330,2013-02-19 05:15:00
11:35 PM,28.9,25.9,88,29.39,2.5,NNW,15.0,20.7,N/A,Snow,Light Snow,330,2013-02-19 05:35:00
11:55 PM,28.4,26.6,93,29.40,1.5,NW,12.7,-,N/A,Snow,Light Snow,320,2013-02-19 05:55:00